Time;durP1;ratioP1;P1;durP2;ratioP2;P2;SDS_P1;SDS_P2;PMS_P1;PMS_P2;Temp;Humidity;BMP_temperature;BMP_pressure;BME280_temperature;BME280_humidity;BME280_pressure;Samples;Min_cycle;Max_cycle;Signal;HPM_P1;HPM_P2
2023/06/01 00:04:53;;;;;;;3.53;1.15;;;;;;;;;;21003295;28;20044;-66
2023/06/01 00:14:54;;;;;;;2.03;1.25;;;;;;;;;;21001914;28;20039;-66
2023/06/01 00:24:56;;;;;;;3.42;0.98;;;;;;;;;;21000860;28;20041;-66
2023/06/01 00:34:57;;;;;;;2.08;1.00;;;;;;;;;;20999599;28;20071;-66
2023/06/01 00:44:58;;;;;;;3.55;0.90;;;;;;;;;;20998894;28;20452;-66
2023/06/01 00:54:59;;;;;;;2.67;1.10;;;;;;;;;;20996977;28;20052;-66
2023/06/01 01:05:00;;;;;;;3.33;1.33;;;;;;;;;;20997955;28;20317;-66
2023/06/01 01:15:11;;;;;;;2.03;1.25;;;;;;;;;;20996913;28;20036;-66
2023/06/01 01:25:26;;;;;;;2.15;0.90;;;;;;;;;;20996722;28;20109;-66
2023/06/01 01:35:28;;;;;;;2.08;1.23;;;;;;;;;;20995610;28;20101;-66
2023/06/01 01:45:30;;;;;;;2.63;1.15;;;;;;;;;;20995664;28;20123;-66
2023/06/01 01:55:31;;;;;;;2.22;1.02;;;;;;;;;;20995331;28;20529;-65
2023/06/01 02:05:32;;;;;;;2.53;1.10;;;;;;;;;;20995308;28;20048;-66
2023/06/01 02:15:33;;;;;;;3.80;1.33;;;;;;;;;;20994594;28;20077;-66
2023/06/01 02:25:34;;;;;;;2.30;1.38;;;;;;;;;;20994238;28;20048;-66
2023/06/01 02:35:35;;;;;;;2.25;1.10;;;;;;;;;;20993677;28;20539;-66
2023/06/01 02:45:38;;;;;;;2.63;1.30;;;;;;;;;;21000296;28;20110;-65
2023/06/01 02:55:39;;;;;;;1.55;1.08;;;;;;;;;;21009248;28;20599;-65
2023/06/01 03:05:42;;;;;;;3.65;1.10;;;;;;;;;;21008262;28;20444;-66
2023/06/01 03:15:44;;;;;;;3.05;1.00;;;;;;;;;;21007613;28;20396;-66
2023/06/01 03:25:45;;;;;;;3.22;1.30;;;;;;;;;;21006607;28;20529;-67
2023/06/01 03:35:46;;;;;;;3.00;1.20;;;;;;;;;;21005949;28;20048;-66
2023/06/01 03:45:47;;;;;;;2.05;1.30;;;;;;;;;;21004353;28;20049;-66
2023/06/01 03:55:48;;;;;;;2.42;1.30;;;;;;;;;;21004169;28;20052;-65
2023/06/01 04:05:58;;;;;;;1.88;1.23;;;;;;;;;;21004065;28;20040;-66
2023/06/01 04:16:00;;;;;;;3.70;1.40;;;;;;;;;;21003032;28;20041;-66
2023/06/01 04:26:02;;;;;;;4.28;1.55;;;;;;;;;;21001939;28;20390;-68
2023/06/01 04:36:03;;;;;;;2.90;1.65;;;;;;;;;;21001287;28;20048;-66
2023/06/01 04:46:05;;;;;;;5.72;2.15;;;;;;;;;;21000595;28;20045;-66
2023/06/01 04:56:06;;;;;;;3.97;1.95;;;;;;;;;;20999399;28;20102;-66
2023/06/01 05:06:07;;;;;;;5.57;2.25;;;;;;;;;;20998063;28;20049;-66
2023/06/01 05:16:08;;;;;;;5.47;2.13;;;;;;;;;;20997957;28;20036;-65
2023/06/01 05:26:10;;;;;;;4.35;2.40;;;;;;;;;;20996332;28;20052;-66
2023/06/01 05:36:11;;;;;;;5.22;2.63;;;;;;;;;;20997242;28;20551;-66
2023/06/01 05:46:12;;;;;;;11.98;7.10;;;;;;;;;;20995440;28;20048;-66
2023/06/01 05:56:13;;;;;;;6.38;2.75;;;;;;;;;;20996326;28;20519;-67
2023/06/01 06:06:14;;;;;;;5.15;2.83;;;;;;;;;;20995715;28;20115;-66
2023/06/01 06:16:15;;;;;;;5.28;3.00;;;;;;;;;;20994937;28;20161;-66
2023/06/01 06:26:17;;;;;;;4.55;2.53;;;;;;;;;;21010979;28;20090;-66
2023/06/01 06:36:18;;;;;;;5.13;2.50;;;;;;;;;;21009975;28;20048;-66
2023/06/01 06:46:19;;;;;;;5.53;2.90;;;;;;;;;;21009936;28;20547;-66
2023/06/01 06:56:20;;;;;;;6.03;3.10;;;;;;;;;;21009270;28;20406;-65
2023/06/01 07:06:22;;;;;;;7.57;3.65;;;;;;;;;;21008585;28;20059;-66
2023/06/01 07:16:26;;;;;;;7.63;3.90;;;;;;;;;;21007783;28;20044;-68
2023/06/01 07:26:29;;;;;;;6.95;3.30;;;;;;;;;;21005312;28;20107;-66
2023/06/01 07:36:33;;;;;;;6.95;3.55;;;;;;;;;;21003617;28;20536;-66
2023/06/01 07:46:34;;;;;;;7.95;3.42;;;;;;;;;;21004173;28;20055;-65
2023/06/01 07:56:35;;;;;;;5.18;2.70;;;;;;;;;;21003359;28;20053;-66
2023/06/01 08:06:38;;;;;;;8.65;3.28;;;;;;;;;;21002751;28;20056;-66
2023/06/01 08:16:39;;;;;;;6.43;3.53;;;;;;;;;;21001221;28;20048;-65
2023/06/01 08:26:40;;;;;;;7.03;3.53;;;;;;;;;;21002516;28;20447;-66
2023/06/01 08:36:42;;;;;;;5.22;3.38;;;;;;;;;;21001729;28;20048;-65
2023/06/01 08:46:43;;;;;;;4.65;3.28;;;;;;;;;;21000752;28;20049;-67
2023/06/01 08:56:44;;;;;;;3.50;2.28;;;;;;;;;;20999827;28;20067;-66
2023/06/01 09:06:45;;;;;;;4.63;2.53;;;;;;;;;;20998008;28;20086;-66
2023/06/01 09:16:47;;;;;;;7.45;2.35;;;;;;;;;;20996597;28;20082;-66
2023/06/01 09:26:48;;;;;;;6.85;2.30;;;;;;;;;;20996214;28;20087;-66
2023/06/01 09:36:51;;;;;;;8.45;2.63;;;;;;;;;;20996645;28;20056;-66
2023/06/01 09:46:53;;;;;;;5.15;2.65;;;;;;;;;;20995998;28;20052;-72
2023/06/01 09:56:55;;;;;;;12.50;7.75;;;;;;;;;;20994566;28;20058;-71
2023/06/01 10:06:57;;;;;;;7.43;2.80;;;;;;;;;;20995098;28;20478;-61
2023/06/01 10:16:58;;;;;;;5.97;2.38;;;;;;;;;;20995288;28;20041;-63
2023/06/01 10:27:05;;;;;;;4.90;2.55;;;;;;;;;;20994481;28;20063;-70
2023/06/01 10:37:06;;;;;;;5.63;2.73;;;;;;;;;;20994323;28;20064;-69
2023/06/01 10:47:13;;;;;;;5.88;2.67;;;;;;;;;;20994506;28;20044;-68
2023/06/01 10:57:21;;;;;;;5.50;2.67;;;;;;;;;;20982895;28;20048;-66
2023/06/01 11:07:39;;;;;;;6.93;2.83;;;;;;;;;;20994234;28;20386;-67
2023/06/01 11:17:41;;;;;;;4.90;2.83;;;;;;;;;;21005463;28;20586;-71
2023/06/01 11:27:43;;;;;;;4.95;2.35;;;;;;;;;;21005239;28;20060;-71
2023/06/01 11:37:47;;;;;;;5.22;2.05;;;;;;;;;;21003512;28;20044;-72
2023/06/01 11:47:48;;;;;;;4.72;2.15;;;;;;;;;;21001161;28;20068;-68
2023/06/01 11:57:50;;;;;;;5.10;2.28;;;;;;;;;;21002527;28;20055;-68
2023/06/01 12:07:53;;;;;;;4.18;2.10;;;;;;;;;;21003217;28;20041;-67
2023/06/01 12:17:56;;;;;;;5.82;2.53;;;;;;;;;;21000134;28;20083;-67
2023/06/01 12:28:05;;;;;;;6.38;3.10;;;;;;;;;;21001235;28;20084;-68
2023/06/01 12:38:07;;;;;;;5.97;2.58;;;;;;;;;;21000663;28;20511;-68
2023/06/01 12:48:09;;;;;;;5.47;2.83;;;;;;;;;;20999036;28;20083;-69
2023/06/01 12:58:10;;;;;;;7.35;2.83;;;;;;;;;;20999507;28;20087;-67
2023/06/01 13:08:11;;;;;;;9.57;2.97;;;;;;;;;;20998255;28;20166;-67
2023/06/01 13:18:12;;;;;;;6.03;2.78;;;;;;;;;;20996651;28;20048;-67
2023/06/01 13:28:13;;;;;;;6.65;2.25;;;;;;;;;;20995577;28;20049;-68
2023/06/01 13:38:15;;;;;;;6.18;2.50;;;;;;;;;;20995289;28;20040;-69
2023/06/01 13:48:16;;;;;;;6.50;2.40;;;;;;;;;;20996473;28;20072;-68
2023/06/01 13:58:17;;;;;;;4.60;2.47;;;;;;;;;;20994395;28;20135;-68
2023/06/01 14:08:18;;;;;;;5.80;2.63;;;;;;;;;;20995989;28;20056;-67
2023/06/01 14:18:19;;;;;;;7.22;3.83;;;;;;;;;;20995119;28;20086;-69
2023/06/01 14:28:20;;;;;;;3.92;1.23;;;;;;;;;;20994523;28;20052;-68
2023/06/01 14:38:22;;;;;;;3.20;1.17;;;;;;;;;;20997379;28;20535;-67
2023/06/01 14:48:23;;;;;;;6.60;1.83;;;;;;;;;;21010205;28;20078;-67
2023/06/01 14:58:24;;;;;;;15.70;4.45;;;;;;;;;;21006633;28;20049;-67
2023/06/01 15:08:28;;;;;;;7.00;2.40;;;;;;;;;;21008220;28;20047;-69
2023/06/01 15:18:29;;;;;;;6.47;2.75;;;;;;;;;;21008907;28;20409;-70
2023/06/01 15:28:31;;;;;;;7.60;2.38;;;;;;;;;;21006413;28;20525;-69
2023/06/01 15:38:32;;;;;;;4.97;1.85;;;;;;;;;;21005611;28;20071;-70
2023/06/01 15:48:33;;;;;;;5.63;2.80;;;;;;;;;;21004476;28;20044;-70
2023/06/01 15:58:34;;;;;;;4.70;2.72;;;;;;;;;;21000346;28;20201;-69
2023/06/01 16:08:35;;;;;;;4.45;2.67;;;;;;;;;;20999217;28;20435;-68
2023/06/01 16:18:37;;;;;;;4.10;1.83;;;;;;;;;;21002915;28;20109;-69
2023/06/01 16:28:39;;;;;;;3.30;2.10;;;;;;;;;;21000360;28;20048;-69
2023/06/01 16:38:40;;;;;;;4.78;1.98;;;;;;;;;;21001458;28;20037;-70
2023/06/01 16:48:41;;;;;;;6.05;2.20;;;;;;;;;;21000882;28;20067;-73
2023/06/01 16:58:42;;;;;;;2.88;1.27;;;;;;;;;;20997886;28;20052;-69
2023/06/01 17:08:43;;;;;;;4.78;1.55;;;;;;;;;;20998044;28;20040;-69
2023/06/01 17:18:44;;;;;;;3.20;1.33;;;;;;;;;;20997832;28;20436;-68
2023/06/01 17:28:45;;;;;;;3.65;1.50;;;;;;;;;;20997387;28;20088;-69
2023/06/01 17:38:47;;;;;;;3.30;1.63;;;;;;;;;;20997247;28;20413;-69
2023/06/01 17:48:49;;;;;;;2.42;1.23;;;;;;;;;;20996934;28;20398;-69
2023/06/01 17:58:51;;;;;;;1.63;0.90;;;;;;;;;;20995620;28;20132;-69
2023/06/01 18:08:52;;;;;;;5.75;1.50;;;;;;;;;;20994830;28;20165;-69
2023/06/01 18:18:53;;;;;;;2.42;1.20;;;;;;;;;;21005090;28;20048;-68
2023/06/01 18:28:57;;;;;;;2.30;1.30;;;;;;;;;;21009341;28;20043;-67
2023/06/01 18:38:58;;;;;;;7.80;1.90;;;;;;;;;;21009518;28;20059;-68
2023/06/01 18:48:59;;;;;;;3.88;1.60;;;;;;;;;;21009290;28;20477;-68
2023/06/01 18:59:02;;;;;;;3.58;2.20;;;;;;;;;;21008208;28;20083;-68
2023/06/01 19:09:03;;;;;;;3.38;2.10;;;;;;;;;;21006742;28;20041;-68
2023/06/01 19:19:04;;;;;;;4.00;1.80;;;;;;;;;;21006869;28;20093;-68
2023/06/01 19:29:12;;;;;;;2.88;1.63;;;;;;;;;;21003556;28;20041;-68
2023/06/01 19:39:13;;;;;;;6.47;2.60;;;;;;;;;;21005985;28;20101;-67
2023/06/01 19:49:14;;;;;;;9.25;6.30;;;;;;;;;;21005668;28;20046;-67
2023/06/01 19:59:20;;;;;;;6.55;2.92;;;;;;;;;;21003644;28;20504;-68
2023/06/01 20:09:21;;;;;;;6.88;2.60;;;;;;;;;;21003015;28;20086;-67
2023/06/01 20:19:23;;;;;;;5.25;2.35;;;;;;;;;;21002105;28;20056;-69
2023/06/01 20:29:25;;;;;;;6.82;3.33;;;;;;;;;;21000777;28;20048;-68
2023/06/01 20:39:26;;;;;;;6.10;2.65;;;;;;;;;;20999148;28;20048;-67
2023/06/01 20:49:28;;;;;;;7.35;3.10;;;;;;;;;;20999609;28;20486;-68
2023/06/01 20:59:31;;;;;;;5.43;1.88;;;;;;;;;;20998540;28;20048;-68
2023/06/01 21:09:32;;;;;;;5.32;2.40;;;;;;;;;;20998190;28;20097;-67
2023/06/01 21:19:33;;;;;;;4.10;1.80;;;;;;;;;;20996822;28;20045;-67
2023/06/01 21:29:35;;;;;;;4.05;2.08;;;;;;;;;;20996586;28;20060;-68
2023/06/01 21:39:36;;;;;;;3.35;2.10;;;;;;;;;;20996245;28;20378;-68
2023/06/01 21:49:37;;;;;;;4.55;2.20;;;;;;;;;;20995529;28;20101;-67
2023/06/01 21:59:38;;;;;;;5.00;2.33;;;;;;;;;;20996021;28;20543;-68
2023/06/01 22:09:39;;;;;;;4.68;2.38;;;;;;;;;;20995931;28;20044;-68
2023/06/01 22:19:41;;;;;;;5.70;2.25;;;;;;;;;;20994970;28;20082;-68
2023/06/01 22:29:42;;;;;;;8.40;2.20;;;;;;;;;;20993393;28;20052;-68
2023/06/01 22:39:44;;;;;;;1.90;1.55;;;;;;;;;;20994030;28;20109;-67
2023/06/01 22:49:45;;;;;;;3.42;2.35;;;;;;;;;;20992449;28;20044;-67
2023/06/01 22:59:46;;;;;;;5.00;2.38;;;;;;;;;;20995717;28;20413;-67
2023/06/01 23:09:48;;;;;;;7.90;3.17;;;;;;;;;;21007733;28;20080;-68
2023/06/01 23:19:49;;;;;;;7.03;2.55;;;;;;;;;;21007126;28;20518;-67
2023/06/01 23:29:50;;;;;;;3.95;2.45;;;;;;;;;;21005488;28;20060;-68
2023/06/01 23:39:52;;;;;;;5.10;2.35;;;;;;;;;;21005910;28;20043;-67
2023/06/01 23:49:53;;;;;;;4.20;2.58;;;;;;;;;;21004902;28;20064;-67
2023/06/01 23:59:54;;;;;;;5.55;3.17;;;;;;;;;;21004401;28;20079;-67
